Погода Макаона 2 недели

Риу-Гранди-ду-Норти, Бразилия

16 - 28 июля
  • 16июля
    Сегодня
    +23°
    +34°
    Практически безоблачно
    ВремяПогодаТемператураВлажностьДавлениеВетер, м/сВероятность осадков
    00:00Ясно и безоблачно+25°C79 %763 мм7.4 м/с5 %
    03:00Ясно и безоблачно+23°C82 %762 мм6.4 м/с5 %
    06:00Ясно и безоблачно+22°C83 %763 мм6.1 м/с5 %
    09:00Ясно и безоблачно+28°C62 %764 мм8.4 м/с5 %
    12:00Практически безоблачно+32°C48 %762 мм7.2 м/с5 %
    15:00Практически безоблачно+33°C46 %760 мм5.7 м/с4 %
    18:00Ясно и безоблачно+29°C58 %762 мм9.5 м/с5 %
    21:00Ясно и безоблачно+26°C73 %764 мм7.8 м/с5 %
  • 17июля
    Среда
    +23°
    +34°
    Облачно с прояснениями
    ВремяПогодаТемператураВлажностьДавлениеВетер, м/сВероятность осадков
    00:00Ясно и безоблачно+25°C80 %764 мм7.4 м/с5 %
    03:00Ясно и безоблачно+24°C82 %763 мм6.7 м/с5 %
    06:00Ясно и безоблачно+23°C81 %763 мм5.9 м/с5 %
    09:00Практически безоблачно+28°C63 %764 мм8.4 м/с5 %
    12:00Практически безоблачно+32°C49 %762 мм7.4 м/с5 %
    15:00Облачно с прояснениями+34°C46 %760 мм5.7 м/с4 %
    18:00Ясно и безоблачно+30°C54 %761 мм7.2 м/с4 %
    21:00Ясно и безоблачно+26°C75 %763 мм8.3 м/с4 %
  • 18июля
    Четверг
    +22°
    +32°
    Облачно с прояснениями
    ВремяПогодаТемператураВлажностьДавлениеВетер, м/сВероятность осадков
    00:00Ясно и безоблачно+25°C81 %762 мм7.8 м/с5 %
    03:00Ясно и безоблачно+24°C82 %761 мм6.6 м/с4 %
    06:00Ясно и безоблачно+23°C82 %762 мм6.1 м/с6 %
    09:00Облачно с прояснениями+29°C63 %763 мм7.8 м/с7 %
    12:00Облачно с прояснениями+30°C57 %761 мм6.3 м/с18 %
    15:00Облачно с прояснениями+32°C56 %760 мм4.5 м/с46 %
    18:00Небольшая облачность+28°C66 %761 мм5.3 м/с47 %
    21:00Практически безоблачно+27°C72 %763 мм6.2 м/с12 %
  • 19июля
    Пятница
    +22°
    +33°
    Небольшая облачность
    ВремяПогодаТемператураВлажностьДавлениеВетер, м/сВероятность осадков
    00:00Ясно и безоблачно+26°C77 %763 мм6.9 м/с4 %
    03:00Ясно и безоблачно+24°C78 %762 мм6.5 м/с6 %
    06:00Ясно и безоблачно+23°C80 %763 мм4.8 м/с7 %
    09:00Ясно и безоблачно+28°C61 %763 мм6.4 м/с8 %
    12:00Практически безоблачно+32°C48 %761 мм5.4 м/с16 %
    15:00Небольшая облачность+33°C50 %759 мм5.2 м/с34 %
    18:00Практически безоблачно+32°C52 %760 мм7.5 м/с41 %
    21:00Ясно и безоблачно+26°C69 %762 мм8.1 м/с7 %
Мы используем cookies
Соглашаюсь